sensor_id;sensor_type;location;lat;lon;timestamp;P1;durP1;ratioP1;P2;durP2;ratioP2
19919;SDS011;10122;50.074;19.920;2023-03-20T00:03:49;46.10;;;24.08;;
19919;SDS011;10122;50.074;19.920;2023-03-20T00:06:25;43.63;;;23.38;;
19919;SDS011;10122;50.074;19.920;2023-03-20T00:08:53;45.67;;;24.73;;
19919;SDS011;10122;50.074;19.920;2023-03-20T00:11:32;45.40;;;23.88;;
19919;SDS011;10122;50.074;19.920;2023-03-20T00:14:01;44.42;;;23.73;;
19919;SDS011;10122;50.074;19.920;2023-03-20T00:16:33;45.60;;;23.50;;
19919;SDS011;10122;50.074;19.920;2023-03-20T00:19:00;42.63;;;23.50;;
19919;SDS011;10122;50.074;19.920;2023-03-20T00:21:27;46.13;;;24.92;;
19919;SDS011;10122;50.074;19.920;2023-03-20T00:23:53;46.47;;;24.85;;
19919;SDS011;10122;50.074;19.920;2023-03-20T00:26:20;48.50;;;25.52;;
19919;SDS011;10122;50.074;19.920;2023-03-20T00:28:52;47.10;;;25.40;;
19919;SDS011;10122;50.074;19.920;2023-03-20T00:31:29;45.85;;;24.92;;
19919;SDS011;10122;50.074;19.920;2023-03-20T00:34:00;52.67;;;27.10;;
19919;SDS011;10122;50.074;19.920;2023-03-20T00:36:29;50.00;;;26.98;;
19919;SDS011;10122;50.074;19.920;2023-03-20T00:38:55;47.88;;;26.35;;
19919;SDS011;10122;50.074;19.920;2023-03-20T00:43:52;50.13;;;27.85;;
19919;SDS011;10122;50.074;19.920;2023-03-20T00:46:34;53.40;;;28.67;;
19919;SDS011;10122;50.074;19.920;2023-03-20T00:49:03;56.72;;;29.50;;
19919;SDS011;10122;50.074;19.920;2023-03-20T00:51:29;54.22;;;29.75;;
19919;SDS011;10122;50.074;19.920;2023-03-20T00:53:54;56.92;;;30.83;;
19919;SDS011;10122;50.074;19.920;2023-03-20T00:58:52;55.30;;;30.10;;
19919;SDS011;10122;50.074;19.920;2023-03-20T01:01:18;58.28;;;31.58;;
19919;SDS011;10122;50.074;19.920;2023-03-20T01:03:44;57.95;;;30.45;;
19919;SDS011;10122;50.074;19.920;2023-03-20T01:06:10;53.95;;;29.77;;
19919;SDS011;10122;50.074;19.920;2023-03-20T01:08:37;54.22;;;29.33;;
19919;SDS011;10122;50.074;19.920;2023-03-20T01:11:03;55.63;;;30.92;;
19919;SDS011;10122;50.074;19.920;2023-03-20T01:13:29;52.90;;;30.55;;
19919;SDS011;10122;50.074;19.920;2023-03-20T01:15:56;57.50;;;31.52;;
19919;SDS011;10122;50.074;19.920;2023-03-20T01:18:23;54.13;;;30.48;;
19919;SDS011;10122;50.074;19.920;2023-03-20T01:20:50;54.33;;;29.20;;
19919;SDS011;10122;50.074;19.920;2023-03-20T01:23:20;56.60;;;31.38;;
19919;SDS011;10122;50.074;19.920;2023-03-20T01:25:50;55.17;;;30.60;;
19919;SDS011;10122;50.074;19.920;2023-03-20T01:28:20;57.72;;;30.23;;
19919;SDS011;10122;50.074;19.920;2023-03-20T01:30:48;54.42;;;30.30;;
19919;SDS011;10122;50.074;19.920;2023-03-20T01:33:18;56.83;;;30.73;;
19919;SDS011;10122;50.074;19.920;2023-03-20T01:35:45;56.13;;;29.85;;
19919;SDS011;10122;50.074;19.920;2023-03-20T01:38:15;55.35;;;30.50;;
19919;SDS011;10122;50.074;19.920;2023-03-20T01:43:34;61.10;;;31.40;;
19919;SDS011;10122;50.074;19.920;2023-03-20T01:46:01;56.78;;;30.77;;
19919;SDS011;10122;50.074;19.920;2023-03-20T01:51:14;56.78;;;31.25;;
19919;SDS011;10122;50.074;19.920;2023-03-20T01:53:41;54.35;;;30.40;;
19919;SDS011;10122;50.074;19.920;2023-03-20T01:56:09;57.50;;;30.10;;
19919;SDS011;10122;50.074;19.920;2023-03-20T01:58:39;59.05;;;32.20;;
19919;SDS011;10122;50.074;19.920;2023-03-20T02:01:10;56.85;;;31.85;;
19919;SDS011;10122;50.074;19.920;2023-03-20T02:03:37;58.00;;;31.52;;
19919;SDS011;10122;50.074;19.920;2023-03-20T02:06:07;56.00;;;30.55;;
19919;SDS011;10122;50.074;19.920;2023-03-20T02:08:35;58.78;;;31.63;;
19919;SDS011;10122;50.074;19.920;2023-03-20T02:11:06;58.95;;;31.50;;
19919;SDS011;10122;50.074;19.920;2023-03-20T02:13:32;52.72;;;30.33;;
19919;SDS011;10122;50.074;19.920;2023-03-20T02:18:33;58.08;;;31.83;;
19919;SDS011;10122;50.074;19.920;2023-03-20T02:26:37;62.00;;;33.05;;
19919;SDS011;10122;50.074;19.920;2023-03-20T02:34:51;57.97;;;32.10;;
19919;SDS011;10122;50.074;19.920;2023-03-20T02:43:01;58.45;;;32.13;;
19919;SDS011;10122;50.074;19.920;2023-03-20T02:48:56;60.40;;;33.17;;
19919;SDS011;10122;50.074;19.920;2023-03-20T02:51:51;62.65;;;32.65;;
19919;SDS011;10122;50.074;19.920;2023-03-20T02:54:29;61.00;;;31.80;;
19919;SDS011;10122;50.074;19.920;2023-03-20T02:57:10;63.13;;;33.35;;
19919;SDS011;10122;50.074;19.920;2023-03-20T02:59:46;57.35;;;31.88;;
19919;SDS011;10122;50.074;19.920;2023-03-20T03:02:55;62.47;;;32.75;;
19919;SDS011;10122;50.074;19.920;2023-03-20T03:05:37;59.85;;;32.45;;
19919;SDS011;10122;50.074;19.920;2023-03-20T03:08:07;59.72;;;31.67;;
19919;SDS011;10122;50.074;19.920;2023-03-20T03:10:38;56.75;;;31.67;;
19919;SDS011;10122;50.074;19.920;2023-03-20T03:13:11;60.58;;;32.05;;
19919;SDS011;10122;50.074;19.920;2023-03-20T03:15:41;62.60;;;34.47;;
19919;SDS011;10122;50.074;19.920;2023-03-20T03:18:12;59.78;;;33.15;;
19919;SDS011;10122;50.074;19.920;2023-03-20T03:20:41;58.78;;;32.97;;
19919;SDS011;10122;50.074;19.920;2023-03-20T03:23:09;58.97;;;32.13;;
19919;SDS011;10122;50.074;19.920;2023-03-20T03:25:46;62.35;;;32.45;;
19919;SDS011;10122;50.074;19.920;2023-03-20T03:28:25;60.20;;;31.92;;
19919;SDS011;10122;50.074;19.920;2023-03-20T03:31:06;62.20;;;33.47;;
19919;SDS011;10122;50.074;19.920;2023-03-20T03:33:36;61.70;;;33.65;;
19919;SDS011;10122;50.074;19.920;2023-03-20T03:39:01;60.42;;;32.78;;
19919;SDS011;10122;50.074;19.920;2023-03-20T03:41:40;60.58;;;31.92;;
19919;SDS011;10122;50.074;19.920;2023-03-20T03:49:35;63.72;;;33.50;;
19919;SDS011;10122;50.074;19.920;2023-03-20T03:52:08;58.15;;;32.63;;
19919;SDS011;10122;50.074;19.920;2023-03-20T03:54:39;59.25;;;33.28;;
19919;SDS011;10122;50.074;19.920;2023-03-20T03:57:10;61.58;;;33.95;;
19919;SDS011;10122;50.074;19.920;2023-03-20T03:59:40;63.80;;;34.42;;
19919;SDS011;10122;50.074;19.920;2023-03-20T04:02:10;61.10;;;33.90;;
19919;SDS011;10122;50.074;19.920;2023-03-20T04:04:38;64.70;;;34.28;;
19919;SDS011;10122;50.074;19.920;2023-03-20T04:07:07;65.05;;;34.20;;
19919;SDS011;10122;50.074;19.920;2023-03-20T04:09:33;61.55;;;33.72;;
19919;SDS011;10122;50.074;19.920;2023-03-20T04:11:59;63.63;;;34.78;;
19919;SDS011;10122;50.074;19.920;2023-03-20T04:14:25;62.45;;;32.88;;
19919;SDS011;10122;50.074;19.920;2023-03-20T04:16:51;65.97;;;33.00;;
19919;SDS011;10122;50.074;19.920;2023-03-20T04:19:16;63.08;;;34.08;;
19919;SDS011;10122;50.074;19.920;2023-03-20T04:21:42;61.28;;;33.60;;
19919;SDS011;10122;50.074;19.920;2023-03-20T04:24:09;63.55;;;33.55;;
19919;SDS011;10122;50.074;19.920;2023-03-20T04:26:36;59.08;;;32.95;;
19919;SDS011;10122;50.074;19.920;2023-03-20T04:29:02;64.10;;;34.67;;
19919;SDS011;10122;50.074;19.920;2023-03-20T04:31:28;62.55;;;34.15;;
19919;SDS011;10122;50.074;19.920;2023-03-20T04:33:54;62.47;;;33.78;;
19919;SDS011;10122;50.074;19.920;2023-03-20T04:36:20;60.97;;;32.72;;
19919;SDS011;10122;50.074;19.920;2023-03-20T04:38:46;60.17;;;32.33;;
19919;SDS011;10122;50.074;19.920;2023-03-20T04:41:12;60.30;;;32.92;;
19919;SDS011;10122;50.074;19.920;2023-03-20T04:43:38;63.80;;;34.58;;
19919;SDS011;10122;50.074;19.920;2023-03-20T04:46:04;67.32;;;35.00;;
19919;SDS011;10122;50.074;19.920;2023-03-20T04:48:30;63.20;;;34.38;;
19919;SDS011;10122;50.074;19.920;2023-03-20T04:50:56;64.40;;;34.40;;
19919;SDS011;10122;50.074;19.920;2023-03-20T04:53:22;60.83;;;34.40;;
19919;SDS011;10122;50.074;19.920;2023-03-20T04:55:47;66.03;;;34.28;;
19919;SDS011;10122;50.074;19.920;2023-03-20T04:58:15;61.83;;;34.05;;
19919;SDS011;10122;50.074;19.920;2023-03-20T05:00:40;65.75;;;34.70;;
19919;SDS011;10122;50.074;19.920;2023-03-20T05:03:07;65.45;;;35.22;;
19919;SDS011;10122;50.074;19.920;2023-03-20T05:05:33;65.05;;;35.25;;
19919;SDS011;10122;50.074;19.920;2023-03-20T05:08:02;67.22;;;35.13;;
19919;SDS011;10122;50.074;19.920;2023-03-20T05:10:29;66.80;;;35.10;;
19919;SDS011;10122;50.074;19.920;2023-03-20T05:12:55;64.43;;;35.08;;
19919;SDS011;10122;50.074;19.920;2023-03-20T05:15:21;67.32;;;36.13;;
19919;SDS011;10122;50.074;19.920;2023-03-20T05:17:47;67.50;;;34.70;;
19919;SDS011;10122;50.074;19.920;2023-03-20T05:20:13;63.85;;;33.60;;
19919;SDS011;10122;50.074;19.920;2023-03-20T05:22:39;61.17;;;33.85;;
19919;SDS011;10122;50.074;19.920;2023-03-20T05:25:05;64.88;;;34.40;;
19919;SDS011;10122;50.074;19.920;2023-03-20T05:27:32;62.22;;;34.22;;
19919;SDS011;10122;50.074;19.920;2023-03-20T05:29:57;59.38;;;34.28;;
19919;SDS011;10122;50.074;19.920;2023-03-20T05:32:23;61.28;;;34.60;;
19919;SDS011;10122;50.074;19.920;2023-03-20T05:34:49;61.75;;;33.83;;
19919;SDS011;10122;50.074;19.920;2023-03-20T05:37:15;63.70;;;35.15;;
19919;SDS011;10122;50.074;19.920;2023-03-20T05:39:40;63.30;;;33.70;;
19919;SDS011;10122;50.074;19.920;2023-03-20T05:42:06;66.10;;;34.17;;
19919;SDS011;10122;50.074;19.920;2023-03-20T05:44:32;64.28;;;33.20;;
19919;SDS011;10122;50.074;19.920;2023-03-20T05:46:57;64.18;;;33.95;;
19919;SDS011;10122;50.074;19.920;2023-03-20T05:49:23;61.53;;;33.33;;
19919;SDS011;10122;50.074;19.920;2023-03-20T05:51:49;65.60;;;33.40;;
19919;SDS011;10122;50.074;19.920;2023-03-20T05:54:15;67.25;;;33.67;;
19919;SDS011;10122;50.074;19.920;2023-03-20T05:56:41;77.05;;;33.58;;
19919;SDS011;10122;50.074;19.920;2023-03-20T05:59:06;65.97;;;33.20;;
19919;SDS011;10122;50.074;19.920;2023-03-20T06:01:32;69.82;;;33.35;;
19919;SDS011;10122;50.074;19.920;2023-03-20T06:03:58;61.53;;;32.97;;
19919;SDS011;10122;50.074;19.920;2023-03-20T06:06:23;60.30;;;32.58;;
19919;SDS011;10122;50.074;19.920;2023-03-20T06:08:49;56.78;;;31.13;;
19919;SDS011;10122;50.074;19.920;2023-03-20T06:11:15;61.88;;;32.08;;
19919;SDS011;10122;50.074;19.920;2023-03-20T06:13:41;62.10;;;31.67;;
19919;SDS011;10122;50.074;19.920;2023-03-20T06:16:07;56.33;;;30.63;;
19919;SDS011;10122;50.074;19.920;2023-03-20T06:18:32;58.80;;;30.92;;
19919;SDS011;10122;50.074;19.920;2023-03-20T06:20:58;53.28;;;29.55;;
19919;SDS011;10122;50.074;19.920;2023-03-20T06:23:24;53.97;;;29.65;;
19919;SDS011;10122;50.074;19.920;2023-03-20T06:25:50;58.72;;;30.00;;
19919;SDS011;10122;50.074;19.920;2023-03-20T06:28:15;51.63;;;28.55;;
19919;SDS011;10122;50.074;19.920;2023-03-20T06:30:42;53.40;;;28.92;;
19919;SDS011;10122;50.074;19.920;2023-03-20T06:33:08;48.03;;;27.60;;
19919;SDS011;10122;50.074;19.920;2023-03-20T06:35:34;52.42;;;29.02;;
19919;SDS011;10122;50.074;19.920;2023-03-20T06:38:00;55.03;;;28.42;;
19919;SDS011;10122;50.074;19.920;2023-03-20T06:40:26;50.90;;;28.25;;
19919;SDS011;10122;50.074;19.920;2023-03-20T06:42:53;50.92;;;28.38;;
19919;SDS011;10122;50.074;19.920;2023-03-20T06:45:19;54.75;;;28.45;;
19919;SDS011;10122;50.074;19.920;2023-03-20T06:47:45;44.08;;;25.42;;
19919;SDS011;10122;50.074;19.920;2023-03-20T06:50:11;45.80;;;25.25;;
19919;SDS011;10122;50.074;19.920;2023-03-20T06:52:38;49.58;;;26.13;;
19919;SDS011;10122;50.074;19.920;2023-03-20T06:55:04;43.30;;;25.70;;
19919;SDS011;10122;50.074;19.920;2023-03-20T06:57:31;42.47;;;24.27;;
19919;SDS011;10122;50.074;19.920;2023-03-20T06:59:58;40.15;;;23.58;;
19919;SDS011;10122;50.074;19.920;2023-03-20T07:02:24;41.13;;;23.33;;
19919;SDS011;10122;50.074;19.920;2023-03-20T07:04:50;41.83;;;23.70;;
19919;SDS011;10122;50.074;19.920;2023-03-20T07:07:16;39.40;;;24.02;;
19919;SDS011;10122;50.074;19.920;2023-03-20T07:09:42;37.20;;;21.83;;
19919;SDS011;10122;50.074;19.920;2023-03-20T07:12:12;38.13;;;21.98;;
19919;SDS011;10122;50.074;19.920;2023-03-20T07:14:40;36.97;;;21.17;;
19919;SDS011;10122;50.074;19.920;2023-03-20T07:17:07;36.30;;;20.40;;
19919;SDS011;10122;50.074;19.920;2023-03-20T07:19:34;31.73;;;17.88;;
19919;SDS011;10122;50.074;19.920;2023-03-20T07:22:01;32.35;;;18.67;;
19919;SDS011;10122;50.074;19.920;2023-03-20T07:24:30;30.75;;;17.05;;
19919;SDS011;10122;50.074;19.920;2023-03-20T07:26:56;25.77;;;14.57;;
19919;SDS011;10122;50.074;19.920;2023-03-20T07:29:22;23.50;;;14.25;;
19919;SDS011;10122;50.074;19.920;2023-03-20T07:31:48;25.33;;;13.80;;
19919;SDS011;10122;50.074;19.920;2023-03-20T07:34:13;25.10;;;12.75;;
19919;SDS011;10122;50.074;19.920;2023-03-20T07:36:39;20.25;;;11.93;;
19919;SDS011;10122;50.074;19.920;2023-03-20T07:39:06;21.73;;;12.27;;
19919;SDS011;10122;50.074;19.920;2023-03-20T07:41:32;23.80;;;13.00;;
19919;SDS011;10122;50.074;19.920;2023-03-20T07:43:58;22.75;;;13.57;;
19919;SDS011;10122;50.074;19.920;2023-03-20T07:46:24;22.55;;;13.45;;
19919;SDS011;10122;50.074;19.920;2023-03-20T07:48:50;23.67;;;14.68;;
19919;SDS011;10122;50.074;19.920;2023-03-20T07:51:16;24.30;;;13.93;;
19919;SDS011;10122;50.074;19.920;2023-03-20T07:53:41;24.02;;;14.27;;
19919;SDS011;10122;50.074;19.920;2023-03-20T07:56:07;25.08;;;14.95;;
19919;SDS011;10122;50.074;19.920;2023-03-20T07:58:34;25.45;;;13.60;;
19919;SDS011;10122;50.074;19.920;2023-03-20T08:01:00;24.55;;;14.20;;
19919;SDS011;10122;50.074;19.920;2023-03-20T08:03:27;22.88;;;13.18;;
19919;SDS011;10122;50.074;19.920;2023-03-20T08:05:53;26.60;;;14.75;;
19919;SDS011;10122;50.074;19.920;2023-03-20T08:08:19;27.15;;;14.07;;
19919;SDS011;10122;50.074;19.920;2023-03-20T08:10:45;25.33;;;14.98;;
19919;SDS011;10122;50.074;19.920;2023-03-20T08:13:10;22.15;;;13.48;;
19919;SDS011;10122;50.074;19.920;2023-03-20T08:15:36;22.02;;;13.40;;
19919;SDS011;10122;50.074;19.920;2023-03-20T08:18:02;25.00;;;13.98;;
19919;SDS011;10122;50.074;19.920;2023-03-20T08:20:28;22.83;;;14.32;;
19919;SDS011;10122;50.074;19.920;2023-03-20T08:22:55;25.17;;;13.95;;
19919;SDS011;10122;50.074;19.920;2023-03-20T08:25:21;22.02;;;14.25;;
19919;SDS011;10122;50.074;19.920;2023-03-20T08:27:47;22.98;;;14.00;;
19919;SDS011;10122;50.074;19.920;2023-03-20T08:30:13;22.95;;;14.25;;
19919;SDS011;10122;50.074;19.920;2023-03-20T08:32:40;23.35;;;13.70;;
19919;SDS011;10122;50.074;19.920;2023-03-20T08:35:06;24.23;;;14.15;;
19919;SDS011;10122;50.074;19.920;2023-03-20T08:37:33;25.27;;;13.57;;
19919;SDS011;10122;50.074;19.920;2023-03-20T08:39:59;24.98;;;14.05;;
19919;SDS011;10122;50.074;19.920;2023-03-20T08:42:25;22.08;;;13.60;;
19919;SDS011;10122;50.074;19.920;2023-03-20T08:44:51;23.23;;;13.80;;
19919;SDS011;10122;50.074;19.920;2023-03-20T08:47:17;25.05;;;15.00;;
19919;SDS011;10122;50.074;19.920;2023-03-20T08:49:43;25.48;;;14.80;;
19919;SDS011;10122;50.074;19.920;2023-03-20T08:52:09;23.55;;;15.80;;
19919;SDS011;10122;50.074;19.920;2023-03-20T08:54:35;24.10;;;15.15;;
19919;SDS011;10122;50.074;19.920;2023-03-20T08:57:00;31.42;;;15.45;;
19919;SDS011;10122;50.074;19.920;2023-03-20T08:59:26;24.67;;;13.90;;
19919;SDS011;10122;50.074;19.920;2023-03-20T09:01:52;26.33;;;15.95;;
19919;SDS011;10122;50.074;19.920;2023-03-20T09:04:18;27.45;;;15.43;;
19919;SDS011;10122;50.074;19.920;2023-03-20T09:06:43;24.33;;;13.93;;
19919;SDS011;10122;50.074;19.920;2023-03-20T09:09:09;24.52;;;16.15;;
19919;SDS011;10122;50.074;19.920;2023-03-20T09:11:35;24.70;;;15.07;;
19919;SDS011;10122;50.074;19.920;2023-03-20T09:14:01;24.77;;;14.73;;
19919;SDS011;10122;50.074;19.920;2023-03-20T09:16:27;24.10;;;14.88;;
19919;SDS011;10122;50.074;19.920;2023-03-20T09:18:53;24.15;;;14.20;;
19919;SDS011;10122;50.074;19.920;2023-03-20T09:21:19;25.10;;;15.15;;
19919;SDS011;10122;50.074;19.920;2023-03-20T09:23:44;26.42;;;16.02;;
19919;SDS011;10122;50.074;19.920;2023-03-20T09:26:11;24.65;;;16.25;;
19919;SDS011;10122;50.074;19.920;2023-03-20T09:28:37;24.08;;;15.63;;
19919;SDS011;10122;50.074;19.920;2023-03-20T09:31:02;25.50;;;15.25;;
19919;SDS011;10122;50.074;19.920;2023-03-20T09:33:28;24.00;;;15.73;;
19919;SDS011;10122;50.074;19.920;2023-03-20T09:35:54;29.92;;;16.67;;
19919;SDS011;10122;50.074;19.920;2023-03-20T09:38:20;28.13;;;15.75;;
19919;SDS011;10122;50.074;19.920;2023-03-20T09:40:53;24.55;;;14.45;;
19919;SDS011;10122;50.074;19.920;2023-03-20T09:43:28;24.05;;;15.88;;
19919;SDS011;10122;50.074;19.920;2023-03-20T09:46:06;27.42;;;15.32;;
19919;SDS011;10122;50.074;19.920;2023-03-20T09:51:37;24.45;;;15.68;;
19919;SDS011;10122;50.074;19.920;2023-03-20T09:56:57;24.23;;;15.48;;
19919;SDS011;10122;50.074;19.920;2023-03-20T09:59:25;27.30;;;15.02;;
19919;SDS011;10122;50.074;19.920;2023-03-20T10:01:56;22.08;;;14.02;;
19919;SDS011;10122;50.074;19.920;2023-03-20T10:04:27;22.30;;;15.25;;
19919;SDS011;10122;50.074;19.920;2023-03-20T10:06:54;23.48;;;15.43;;
19919;SDS011;10122;50.074;19.920;2023-03-20T10:09:24;22.77;;;15.13;;
19919;SDS011;10122;50.074;19.920;2023-03-20T10:15:00;24.20;;;15.40;;
19919;SDS011;10122;50.074;19.920;2023-03-20T10:20:21;20.65;;;13.82;;
19919;SDS011;10122;50.074;19.920;2023-03-20T10:23:12;22.00;;;14.07;;
19919;SDS011;10122;50.074;19.920;2023-03-20T10:25:48;21.73;;;14.05;;
19919;SDS011;10122;50.074;19.920;2023-03-20T10:28:18;22.25;;;13.30;;
19919;SDS011;10122;50.074;19.920;2023-03-20T10:33:58;19.77;;;13.90;;
19919;SDS011;10122;50.074;19.920;2023-03-20T10:39:02;22.95;;;13.82;;
19919;SDS011;10122;50.074;19.920;2023-03-20T10:41:54;22.15;;;13.65;;
19919;SDS011;10122;50.074;19.920;2023-03-20T10:44:28;21.77;;;13.90;;
19919;SDS011;10122;50.074;19.920;2023-03-20T10:46:59;18.80;;;13.73;;
19919;SDS011;10122;50.074;19.920;2023-03-20T10:49:41;19.17;;;13.02;;
19919;SDS011;10122;50.074;19.920;2023-03-20T10:52:16;20.80;;;13.63;;
19919;SDS011;10122;50.074;19.920;2023-03-20T10:55:02;19.38;;;12.85;;
19919;SDS011;10122;50.074;19.920;2023-03-20T10:57:37;20.23;;;13.50;;
19919;SDS011;10122;50.074;19.920;2023-03-20T11:00:06;19.38;;;12.82;;
19919;SDS011;10122;50.074;19.920;2023-03-20T11:02:38;23.65;;;14.05;;
19919;SDS011;10122;50.074;19.920;2023-03-20T11:05:10;19.88;;;13.07;;
19919;SDS011;10122;50.074;19.920;2023-03-20T11:07:44;20.55;;;13.65;;
19919;SDS011;10122;50.074;19.920;2023-03-20T11:10:12;20.88;;;14.23;;
19919;SDS011;10122;50.074;19.920;2023-03-20T11:12:47;20.70;;;13.63;;
19919;SDS011;10122;50.074;19.920;2023-03-20T11:15:24;20.05;;;13.30;;
19919;SDS011;10122;50.074;19.920;2023-03-20T11:20:24;23.77;;;14.10;;
19919;SDS011;10122;50.074;19.920;2023-03-20T11:22:56;20.08;;;13.13;;
19919;SDS011;10122;50.074;19.920;2023-03-20T11:25:31;21.20;;;13.82;;
19919;SDS011;10122;50.074;19.920;2023-03-20T11:30:44;20.67;;;13.90;;
19919;SDS011;10122;50.074;19.920;2023-03-20T11:33:11;21.25;;;12.75;;
19919;SDS011;10122;50.074;19.920;2023-03-20T11:35:43;20.42;;;14.00;;
19919;SDS011;10122;50.074;19.920;2023-03-20T11:38:13;22.42;;;14.65;;
19919;SDS011;10122;50.074;19.920;2023-03-20T11:40:41;22.23;;;13.98;;
19919;SDS011;10122;50.074;19.920;2023-03-20T11:43:14;24.30;;;14.73;;
19919;SDS011;10122;50.074;19.920;2023-03-20T11:45:45;20.13;;;13.70;;
19919;SDS011;10122;50.074;19.920;2023-03-20T11:48:15;22.25;;;14.18;;
19919;SDS011;10122;50.074;19.920;2023-03-20T11:50:48;21.67;;;13.98;;
19919;SDS011;10122;50.074;19.920;2023-03-20T11:53:29;24.48;;;14.43;;
19919;SDS011;10122;50.074;19.920;2023-03-20T11:56:02;23.05;;;14.48;;
19919;SDS011;10122;50.074;19.920;2023-03-20T11:58:29;19.65;;;13.57;;
19919;SDS011;10122;50.074;19.920;2023-03-20T12:00:55;22.95;;;14.93;;
19919;SDS011;10122;50.074;19.920;2023-03-20T12:06:15;20.17;;;13.13;;
19919;SDS011;10122;50.074;19.920;2023-03-20T12:08:45;20.02;;;13.23;;
19919;SDS011;10122;50.074;19.920;2023-03-20T12:13:55;19.52;;;13.77;;
19919;SDS011;10122;50.074;19.920;2023-03-20T12:16:25;20.13;;;13.25;;
19919;SDS011;10122;50.074;19.920;2023-03-20T12:18:55;20.08;;;13.68;;
19919;SDS011;10122;50.074;19.920;2023-03-20T12:21:49;17.02;;;12.32;;
19919;SDS011;10122;50.074;19.920;2023-03-20T12:27:13;13.82;;;9.75;;
19919;SDS011;10122;50.074;19.920;2023-03-20T12:29:49;15.35;;;8.88;;
19919;SDS011;10122;50.074;19.920;2023-03-20T12:32:40;11.02;;;7.88;;
19919;SDS011;10122;50.074;19.920;2023-03-20T12:35:17;10.75;;;7.47;;
19919;SDS011;10122;50.074;19.920;2023-03-20T12:37:46;12.38;;;7.90;;
19919;SDS011;10122;50.074;19.920;2023-03-20T12:40:15;11.00;;;7.88;;
19919;SDS011;10122;50.074;19.920;2023-03-20T12:45:32;11.18;;;7.15;;
19919;SDS011;10122;50.074;19.920;2023-03-20T12:51:10;10.30;;;7.78;;
19919;SDS011;10122;50.074;19.920;2023-03-20T13:02:17;13.10;;;7.72;;
19919;SDS011;10122;50.074;19.920;2023-03-20T13:10:23;16.52;;;9.80;;
19919;SDS011;10122;50.074;19.920;2023-03-20T13:21:02;14.45;;;9.48;;
19919;SDS011;10122;50.074;19.920;2023-03-20T13:31:29;15.77;;;10.73;;
19919;SDS011;10122;50.074;19.920;2023-03-20T13:36:54;17.80;;;11.38;;
19919;SDS011;10122;50.074;19.920;2023-03-20T13:39:30;17.75;;;11.93;;
19919;SDS011;10122;50.074;19.920;2023-03-20T13:42:00;17.45;;;11.68;;
19919;SDS011;10122;50.074;19.920;2023-03-20T13:44:29;16.95;;;12.07;;
19919;SDS011;10122;50.074;19.920;2023-03-20T13:47:17;17.02;;;11.82;;
19919;SDS011;10122;50.074;19.920;2023-03-20T13:52:22;19.02;;;12.23;;
19919;SDS011;10122;50.074;19.920;2023-03-20T13:57:25;15.98;;;11.43;;
19919;SDS011;10122;50.074;19.920;2023-03-20T14:00:05;15.82;;;11.23;;
19919;SDS011;10122;50.074;19.920;2023-03-20T14:05:39;14.70;;;10.73;;
19919;SDS011;10122;50.074;19.920;2023-03-20T14:11:07;17.88;;;11.20;;
19919;SDS011;10122;50.074;19.920;2023-03-20T14:16:41;16.98;;;11.40;;
19919;SDS011;10122;50.074;19.920;2023-03-20T14:19:17;17.77;;;11.57;;
19919;SDS011;10122;50.074;19.920;2023-03-20T14:21:49;16.13;;;11.32;;
19919;SDS011;10122;50.074;19.920;2023-03-20T14:24:18;18.48;;;11.30;;
19919;SDS011;10122;50.074;19.920;2023-03-20T14:27:03;17.63;;;11.75;;
19919;SDS011;10122;50.074;19.920;2023-03-20T14:29:34;16.90;;;12.15;;
19919;SDS011;10122;50.074;19.920;2023-03-20T14:32:02;16.85;;;11.80;;
19919;SDS011;10122;50.074;19.920;2023-03-20T14:34:45;20.17;;;12.98;;
19919;SDS011;10122;50.074;19.920;2023-03-20T14:45:51;19.27;;;13.30;;
19919;SDS011;10122;50.074;19.920;2023-03-20T14:53:54;19.25;;;12.85;;
19919;SDS011;10122;50.074;19.920;2023-03-20T14:56:31;18.17;;;12.30;;
19919;SDS011;10122;50.074;19.920;2023-03-20T14:58:59;15.93;;;12.25;;
19919;SDS011;10122;50.074;19.920;2023-03-20T15:04:20;19.48;;;14.02;;
19919;SDS011;10122;50.074;19.920;2023-03-20T15:07:02;18.23;;;13.35;;
19919;SDS011;10122;50.074;19.920;2023-03-20T15:09:56;18.83;;;13.45;;
19919;SDS011;10122;50.074;19.920;2023-03-20T15:12:28;22.35;;;14.75;;
19919;SDS011;10122;50.074;19.920;2023-03-20T15:15:00;21.88;;;14.52;;
19919;SDS011;10122;50.074;19.920;2023-03-20T15:17:35;20.48;;;14.60;;
19919;SDS011;10122;50.074;19.920;2023-03-20T15:20:06;23.10;;;15.60;;
19919;SDS011;10122;50.074;19.920;2023-03-20T15:22:40;21.55;;;15.27;;
19919;SDS011;10122;50.074;19.920;2023-03-20T15:25:16;21.45;;;14.90;;
19919;SDS011;10122;50.074;19.920;2023-03-20T15:27:43;22.98;;;15.90;;
19919;SDS011;10122;50.074;19.920;2023-03-20T15:30:12;21.00;;;15.60;;
19919;SDS011;10122;50.074;19.920;2023-03-20T15:32:41;23.92;;;16.27;;
19919;SDS011;10122;50.074;19.920;2023-03-20T15:35:15;22.85;;;15.85;;
19919;SDS011;10122;50.074;19.920;2023-03-20T15:37:46;23.50;;;15.88;;
19919;SDS011;10122;50.074;19.920;2023-03-20T15:40:37;24.75;;;16.73;;
19919;SDS011;10122;50.074;19.920;2023-03-20T15:43:12;20.90;;;14.93;;
19919;SDS011;10122;50.074;19.920;2023-03-20T15:45:44;24.33;;;17.08;;
19919;SDS011;10122;50.074;19.920;2023-03-20T15:48:14;24.58;;;16.83;;
19919;SDS011;10122;50.074;19.920;2023-03-20T15:51:17;21.63;;;15.80;;
19919;SDS011;10122;50.074;19.920;2023-03-20T15:53:36;22.55;;;16.48;;
19919;SDS011;10122;50.074;19.920;2023-03-20T15:56:07;24.45;;;18.55;;
19919;SDS011;10122;50.074;19.920;2023-03-20T15:58:36;27.15;;;18.60;;
19919;SDS011;10122;50.074;19.920;2023-03-20T16:01:03;23.27;;;17.13;;
19919;SDS011;10122;50.074;19.920;2023-03-20T16:03:30;23.20;;;18.45;;
19919;SDS011;10122;50.074;19.920;2023-03-20T16:05:58;23.50;;;17.75;;
19919;SDS011;10122;50.074;19.920;2023-03-20T16:08:31;25.15;;;19.52;;
19919;SDS011;10122;50.074;19.920;2023-03-20T16:10:58;25.55;;;17.65;;
19919;SDS011;10122;50.074;19.920;2023-03-20T16:13:31;24.20;;;17.17;;
19919;SDS011;10122;50.074;19.920;2023-03-20T16:16:00;22.30;;;16.40;;
19919;SDS011;10122;50.074;19.920;2023-03-20T16:18:27;24.10;;;17.88;;
19919;SDS011;10122;50.074;19.920;2023-03-20T16:20:58;24.77;;;17.48;;
19919;SDS011;10122;50.074;19.920;2023-03-20T16:25:59;22.33;;;16.83;;
19919;SDS011;10122;50.074;19.920;2023-03-20T16:28:26;21.50;;;16.30;;
19919;SDS011;10122;50.074;19.920;2023-03-20T16:30:54;20.55;;;14.90;;
19919;SDS011;10122;50.074;19.920;2023-03-20T16:33:31;21.33;;;16.48;;
19919;SDS011;10122;50.074;19.920;2023-03-20T16:35:57;22.08;;;15.63;;
19919;SDS011;10122;50.074;19.920;2023-03-20T16:38:25;21.60;;;16.65;;
19919;SDS011;10122;50.074;19.920;2023-03-20T16:41:20;22.92;;;17.65;;
19919;SDS011;10122;50.074;19.920;2023-03-20T16:43:51;24.00;;;18.63;;
19919;SDS011;10122;50.074;19.920;2023-03-20T16:46:21;26.83;;;19.60;;
19919;SDS011;10122;50.074;19.920;2023-03-20T16:48:55;25.65;;;18.80;;
19919;SDS011;10122;50.074;19.920;2023-03-20T16:53:49;27.45;;;20.40;;